Time;durP1;ratioP1;P1;durP2;ratioP2;P2;SDS_P1;SDS_P2;PMS_P1;PMS_P2;Temp;Humidity;BMP_temperature;BMP_pressure;BME280_temperature;BME280_humidity;BME280_pressure;Samples;Min_cycle;Max_cycle;Signal;HPM_P1;HPM_P2
2022/09/03 00:01:49;;;;;;;;;;;;;;;14.94;100.00;100974.56;5317470;27;19973;-77
2022/09/03 00:04:42;;;;;;;;;;;;;;;14.87;100.00;100974.41;5318364;27;20031;-77
2022/09/03 00:07:23;;;;;;;;;;;;;;;14.84;100.00;100980.09;5316896;27;19920;-75
2022/09/03 00:10:07;;;;;;;;;;;;;;;14.79;100.00;100981.63;5331405;27;19916;-75
2022/09/03 00:12:41;;;;;;;;;;;;;;;14.73;100.00;100973.22;5318539;27;19923;-77
2022/09/03 00:15:16;;;;;;;;;;;;;;;14.68;100.00;100975.56;5319488;27;19924;-76
2022/09/03 00:17:59;;;;;;;;;;;;;;;14.65;100.00;100973.19;5317557;27;19920;-76
2022/09/03 00:20:33;;;;;;;;;;;;;;;14.60;100.00;100980.91;5317123;27;19928;-76
2022/09/03 00:23:05;;;;;;;;;;;;;;;14.55;100.00;100970.66;5319574;27;19924;-76
2022/09/03 00:25:39;;;;;;;;;;;;;;;14.49;100.00;100976.66;5318887;27;19928;-76
2022/09/03 00:28:17;;;;;;;;;;;;;;;14.45;100.00;100972.66;5318829;27;19927;-75
2022/09/03 00:30:54;;;;;;;;;;;;;;;14.43;100.00;100971.13;5319319;27;19916;-76
2022/09/03 00:33:27;;;;;;;;;;;;;;;14.38;100.00;100969.78;5318534;27;19916;-76
2022/09/03 00:36:02;;;;;;;;;;;;;;;14.36;100.00;100966.41;5352680;27;19916;-76
2022/09/03 00:38:33;;;;;;;;;;;;;;;14.31;100.00;100971.44;5318129;27;20009;-75
2022/09/03 00:41:15;;;;;;;;;;;;;;;14.27;100.00;100978.16;5319294;27;19932;-75
2022/09/03 00:43:50;;;;;;;;;;;;;;;14.24;100.00;100974.94;5317737;27;19930;-75
2022/09/03 00:46:41;;;;;;;;;;;;;;;14.21;100.00;100969.91;5316839;27;20283;-75
2022/09/03 00:49:19;;;;;;;;;;;;;;;14.19;100.00;100968.22;5318928;27;20104;-76
2022/09/03 00:52:26;;;;;;;;;;;;;;;14.17;100.00;100972.06;5322737;27;19920;-75
2022/09/03 00:54:57;;;;;;;;;;;;;;;14.14;100.00;100965.16;5272180;28;20513;-75
2022/09/03 00:57:46;;;;;;;;;;;;;;;14.13;100.00;100973.38;5311300;27;19916;-76
2022/09/03 01:00:18;;;;;;;;;;;;;;;14.11;100.00;100970.88;5320622;27;19931;-75
2022/09/03 01:02:49;;;;;;;;;;;;;;;14.09;100.00;100975.53;5319552;27;20016;-75
2022/09/03 01:05:29;;;;;;;;;;;;;;;14.07;100.00;100977.56;5319574;27;20003;-76
2022/09/03 01:08:20;;;;;;;;;;;;;;;14.04;100.00;100971.69;5318141;27;20351;-76
2022/09/03 01:10:55;;;;;;;;;;;;;;;14.01;100.00;100964.81;5319142;27;20372;-75
2022/09/03 01:13:33;;;;;;;;;;;;;;;13.97;100.00;100969.66;5322337;27;20317;-75
2022/09/03 01:16:23;;;;;;;;;;;;;;;13.94;100.00;100961.09;5317341;27;19923;-76
2022/09/03 01:19:00;;;;;;;;;;;;;;;13.92;100.00;100971.13;5319118;27;19965;-77
2022/09/03 01:21:50;;;;;;;;;;;;;;;13.88;100.00;100962.56;5319437;27;19927;-76
2022/09/03 01:24:40;;;;;;;;;;;;;;;13.85;100.00;100970.09;5328145;27;20001;-77
2022/09/03 01:27:30;;;;;;;;;;;;;;;13.82;100.00;100959.72;5320361;27;20315;-76
2022/09/03 01:30:04;;;;;;;;;;;;;;;13.76;100.00;100958.47;5317972;27;20030;-77
2022/09/03 01:32:41;;;;;;;;;;;;;;;13.72;100.00;100974.06;5329984;27;20090;-76
2022/09/03 01:35:23;;;;;;;;;;;;;;;13.71;100.00;100972.38;5318573;27;20011;-77
2022/09/03 01:38:04;;;;;;;;;;;;;;;13.69;100.00;100969.03;5349125;27;20307;-76
2022/09/03 01:40:35;;;;;;;;;;;;;;;13.69;100.00;100966.34;5316914;27;19932;-75
2022/09/03 01:43:06;;;;;;;;;;;;;;;13.66;100.00;100972.03;5321415;27;19920;-75
2022/09/03 01:45:48;;;;;;;;;;;;;;;13.63;100.00;100966.97;5315776;27;20292;-75
2022/09/03 01:48:39;;;;;;;;;;;;;;;13.59;100.00;100963.78;5317780;27;19964;-76
2022/09/03 01:51:14;;;;;;;;;;;;;;;13.57;100.00;100968.47;5317737;27;19924;-78
2022/09/03 01:54:05;;;;;;;;;;;;;;;13.56;100.00;100965.94;5318189;27;19928;-76
2022/09/03 01:56:56;;;;;;;;;;;;;;;13.56;100.00;100963.25;5319068;27;19924;-75
2022/09/03 01:59:31;;;;;;;;;;;;;;;13.54;100.00;100967.94;5316359;27;19920;-75
2022/09/03 02:02:06;;;;;;;;;;;;;;;13.49;100.00;100973.75;5318013;27;19928;-76
2022/09/03 02:04:37;;;;;;;;;;;;;;;13.45;100.00;100982.25;5313340;27;19970;-76
2022/09/03 02:07:09;;;;;;;;;;;;;;;13.41;100.00;100974.56;5316220;27;20011;-76
2022/09/03 02:09:40;;;;;;;;;;;;;;;13.43;100.00;100971.72;5318719;27;20343;-75
2022/09/03 02:12:15;;;;;;;;;;;;;;;13.42;100.00;100965.50;5321240;27;20023;-75
2022/09/03 02:14:46;;;;;;;;;;;;;;;13.41;100.00;100963.84;5316384;27;19916;-76
2022/09/03 02:17:18;;;;;;;;;;;;;;;13.42;100.00;100962.00;5317404;27;19963;-76
2022/09/03 02:19:49;;;;;;;;;;;;;;;13.40;100.00;100964.84;5317275;27;20292;-76
2022/09/03 02:22:20;;;;;;;;;;;;;;;13.38;100.00;100960.63;5316785;27;19979;-76
2022/09/03 02:24:51;;;;;;;;;;;;;;;13.37;100.00;100964.31;5317097;27;20342;-75
2022/09/03 02:27:23;;;;;;;;;;;;;;;13.34;100.00;100956.56;5317853;27;20407;-76
2022/09/03 02:29:55;;;;;;;;;;;;;;;13.32;100.00;100969.28;5316775;27;19917;-76
2022/09/03 02:32:26;;;;;;;;;;;;;;;13.30;100.00;100963.22;5317734;27;19975;-76
2022/09/03 02:34:58;;;;;;;;;;;;;;;13.27;100.00;100963.53;5318600;27;20522;-76
2022/09/03 02:37:29;;;;;;;;;;;;;;;13.23;100.00;100969.19;5316489;27;20292;-76
2022/09/03 02:40:04;;;;;;;;;;;;;;;13.22;100.00;100966.69;5317165;27;19920;-76
2022/09/03 02:42:35;;;;;;;;;;;;;;;13.17;100.00;100967.16;5317467;27;19920;-76
2022/09/03 02:45:18;;;;;;;;;;;;;;;13.17;100.00;100960.97;5316471;27;20273;-77
2022/09/03 02:47:51;;;;;;;;;;;;;;;13.20;100.00;100960.63;5319143;27;20300;-76
2022/09/03 02:50:23;;;;;;;;;;;;;;;13.23;100.00;100954.97;5321324;27;19920;-77
2022/09/03 02:52:54;;;;;;;;;;;;;;;13.29;100.00;100958.84;5323408;27;19930;-77
2022/09/03 02:55:26;;;;;;;;;;;;;;;13.32;100.00;100962.09;5352699;27;19955;-76
2022/09/03 02:57:58;;;;;;;;;;;;;;;13.33;100.00;100963.78;5322519;27;19920;-77
2022/09/03 03:00:30;;;;;;;;;;;;;;;13.33;100.00;100968.31;5319837;27;19920;-76
2022/09/03 03:03:02;;;;;;;;;;;;;;;13.33;100.00;100961.09;5321225;27;21356;-76
2022/09/03 03:05:44;;;;;;;;;;;;;;;13.34;100.00;100959.25;5353973;27;19916;-77
2022/09/03 03:08:15;;;;;;;;;;;;;;;13.36;100.00;100963.47;5320126;27;19920;-76
2022/09/03 03:10:48;;;;;;;;;;;;;;;13.37;100.00;100969.66;5320632;27;19924;-76
2022/09/03 03:13:19;;;;;;;;;;;;;;;13.35;100.00;100969.81;5319631;27;19924;-77
2022/09/03 03:15:50;;;;;;;;;;;;;;;13.30;100.00;100972.09;5319899;27;20460;-77
2022/09/03 03:18:22;;;;;;;;;;;;;;;13.26;100.00;100968.06;5320946;27;19920;-76
2022/09/03 03:20:54;;;;;;;;;;;;;;;13.24;100.00;100964.69;5322493;27;20677;-77
2022/09/03 03:23:25;;;;;;;;;;;;;;;13.23;100.00;100963.84;5316784;27;19965;-77
2022/09/03 03:25:59;;;;;;;;;;;;;;;13.21;100.00;100962.34;5322473;27;19924;-77
2022/09/03 03:28:33;;;;;;;;;;;;;;;13.21;100.00;100962.34;5321977;27;20415;-76
2022/09/03 03:31:11;;;;;;;;;;;;;;;13.21;100.00;100957.81;5321944;27;20489;-76
2022/09/03 03:33:42;;;;;;;;;;;;;;;13.21;100.00;100965.00;5318325;27;19924;-77
2022/09/03 03:36:14;;;;;;;;;;;;;;;13.18;100.00;100959.97;5322130;27;19916;-76
2022/09/03 03:38:45;;;;;;;;;;;;;;;13.16;100.00;100965.47;5321666;27;19924;-76
2022/09/03 03:41:18;;;;;;;;;;;;;;;13.11;100.00;100965.09;5319525;27;19924;-76
2022/09/03 03:43:53;;;;;;;;;;;;;;;13.08;100.00;100962.75;5321796;27;19931;-76
2022/09/03 03:46:27;;;;;;;;;;;;;;;13.07;100.00;100968.25;5318193;27;20006;-76
2022/09/03 03:48:59;;;;;;;;;;;;;;;13.03;100.00;100957.84;5320819;27;20376;-76
2022/09/03 03:51:31;;;;;;;;;;;;;;;13.01;100.00;100965.19;5321102;27;19927;-76
2022/09/03 03:54:02;;;;;;;;;;;;;;;13.01;100.00;100959.84;5326940;27;19924;-75
2022/09/03 03:56:34;;;;;;;;;;;;;;;13.01;100.00;100962.53;5320369;27;20293;-76
2022/09/03 03:59:05;;;;;;;;;;;;;;;13.00;100.00;100965.34;5318276;27;20295;-76
2022/09/03 04:01:36;;;;;;;;;;;;;;;13.00;100.00;100966.19;5328150;27;19920;-76
2022/09/03 04:04:07;;;;;;;;;;;;;;;13.01;100.00;100961.69;5322340;27;19926;-76
2022/09/03 04:06:38;;;;;;;;;;;;;;;13.00;100.00;100965.34;5320343;27;19927;-76
2022/09/03 04:09:10;;;;;;;;;;;;;;;12.99;100.00;100969.88;5319291;27;19920;-76
2022/09/03 04:11:41;;;;;;;;;;;;;;;12.99;100.00;100966.34;5320367;27;21039;-76
2022/09/03 04:14:12;;;;;;;;;;;;;;;13.00;100.00;100963.50;5324995;27;20278;-76
2022/09/03 04:16:45;;;;;;;;;;;;;;;13.03;100.00;100965.06;5320622;27;20756;-76
2022/09/03 04:19:16;;;;;;;;;;;;;;;13.05;100.00;100963.06;5320616;27;19916;-76
2022/09/03 04:21:48;;;;;;;;;;;;;;;13.08;100.00;100959.22;5320677;27;19916;-76
2022/09/03 04:24:19;;;;;;;;;;;;;;;13.07;100.00;100955.69;5319516;27;20253;-75
2022/09/03 04:26:50;;;;;;;;;;;;;;;13.05;100.00;100955.03;5321248;27;19931;-76
2022/09/03 04:29:21;;;;;;;;;;;;;;;13.04;100.00;100959.53;5318216;27;20007;-75
2022/09/03 04:34:42;;;;;;;;;;;;;;;13.05;100.00;100957.69;5320722;27;19925;-75
2022/09/03 04:37:15;;;;;;;;;;;;;;;13.05;100.00;100953.19;5321623;27;20399;-76
2022/09/03 04:39:46;;;;;;;;;;;;;;;13.03;100.00;100949.00;5316708;27;19931;-75
2022/09/03 04:42:17;;;;;;;;;;;;;;;13.05;100.00;100952.34;5321754;27;20360;-76
2022/09/03 04:44:48;;;;;;;;;;;;;;;13.04;100.00;100961.34;5325290;27;19921;-76
2022/09/03 04:47:20;;;;;;;;;;;;;;;13.04;100.00;100958.69;5320775;27;20008;-76
2022/09/03 04:49:52;;;;;;;;;;;;;;;13.01;100.00;100967.03;5323512;27;19920;-76
2022/09/03 04:52:24;;;;;;;;;;;;;;;13.03;100.00;100963.22;5325276;27;20433;-76
2022/09/03 04:54:55;;;;;;;;;;;;;;;13.04;100.00;100962.22;5320869;27;19923;-76
2022/09/03 04:57:33;;;;;;;;;;;;;;;13.06;100.00;100970.09;5321432;27;19920;-76
2022/09/03 05:00:06;;;;;;;;;;;;;;;13.08;100.00;100964.56;5322363;27;19920;-75
2022/09/03 05:02:37;;;;;;;;;;;;;;;13.07;100.00;100970.94;5319075;27;19920;-76
2022/09/03 05:05:08;;;;;;;;;;;;;;;13.09;100.00;100963.59;5319121;27;20395;-76
2022/09/03 05:07:40;;;;;;;;;;;;;;;13.10;100.00;100965.28;5322803;27;20288;-76
2022/09/03 05:10:15;;;;;;;;;;;;;;;13.10;100.00;100959.91;5317316;27;19922;-76
2022/09/03 05:12:47;;;;;;;;;;;;;;;13.13;100.00;100965.81;5318633;27;20082;-76
2022/09/03 05:15:18;;;;;;;;;;;;;;;13.16;100.00;100964.63;5352380;27;19923;-76
2022/09/03 05:17:52;;;;;;;;;;;;;;;13.21;100.00;100957.81;5321064;27;20786;-75
2022/09/03 05:20:24;;;;;;;;;;;;;;;13.31;100.00;100964.91;5314485;27;19952;-76
2022/09/03 05:22:56;;;;;;;;;;;;;;;13.40;100.00;100964.84;5320309;27;19966;-75
2022/09/03 05:25:27;;;;;;;;;;;;;;;13.51;100.00;100954.84;5321423;27;19920;-76
2022/09/03 05:28:00;;;;;;;;;;;;;;;13.61;100.00;100956.41;5316852;27;19924;-75
2022/09/03 05:30:31;;;;;;;;;;;;;;;13.71;100.00;100958.97;5321250;27;20394;-75
2022/09/03 05:33:04;;;;;;;;;;;;;;;13.83;100.00;100956.00;5319573;27;19977;-76
2022/09/03 05:35:36;;;;;;;;;;;;;;;13.88;100.00;100959.03;5319974;27;19925;-75
2022/09/03 05:38:08;;;;;;;;;;;;;;;13.91;100.00;100959.56;5320105;27;19920;-76
2022/09/03 05:40:40;;;;;;;;;;;;;;;13.97;100.00;100956.25;5326492;27;19978;-75
2022/09/03 05:43:12;;;;;;;;;;;;;;;14.06;100.00;100961.63;5318893;27;19920;-75
2022/09/03 05:45:43;;;;;;;;;;;;;;;14.13;100.00;100955.47;5331684;27;19916;-75
2022/09/03 05:48:14;;;;;;;;;;;;;;;14.23;100.00;100958.00;5318076;27;20009;-75
2022/09/03 05:50:46;;;;;;;;;;;;;;;14.33;100.00;100961.38;5330542;27;20277;-75
2022/09/03 05:53:17;;;;;;;;;;;;;;;14.43;100.00;100958.56;5316604;27;19920;-76
2022/09/03 05:55:58;;;;;;;;;;;;;;;14.56;100.00;100956.22;5319684;27;19969;-77
2022/09/03 05:58:30;;;;;;;;;;;;;;;14.71;100.00;100966.34;5314997;27;19966;-77
2022/09/03 06:01:09;;;;;;;;;;;;;;;14.88;100.00;100964.50;5316470;27;20383;-77
2022/09/03 06:03:41;;;;;;;;;;;;;;;15.04;100.00;100958.28;5323770;27;19984;-77
2022/09/03 06:06:12;;;;;;;;;;;;;;;15.18;100.00;100957.63;5317634;27;19926;-77
2022/09/03 06:08:44;;;;;;;;;;;;;;;15.32;100.00;100959.59;5329350;27;20536;-77
2022/09/03 06:11:15;;;;;;;;;;;;;;;15.49;100.00;100960.38;5317713;27;20130;-77
2022/09/03 06:13:46;;;;;;;;;;;;;;;15.63;100.00;100958.84;5327129;27;20304;-77
2022/09/03 06:16:17;;;;;;;;;;;;;;;15.76;100.00;100961.03;5317399;27;20342;-75
2022/09/03 06:18:50;;;;;;;;;;;;;;;15.89;100.00;100952.41;5315683;27;19925;-75
2022/09/03 06:21:21;;;;;;;;;;;;;;;16.01;100.00;100956.38;5316466;27;19967;-75
2022/09/03 06:23:56;;;;;;;;;;;;;;;16.15;100.00;100965.56;5321457;27;19924;-75
2022/09/03 06:26:28;;;;;;;;;;;;;;;16.31;100.00;100961.94;5319288;27;19920;-75
2022/09/03 06:28:59;;;;;;;;;;;;;;;16.45;100.00;100963.88;5323015;27;19922;-75
2022/09/03 06:31:30;;;;;;;;;;;;;;;16.61;100.00;100965.63;5323275;27;19928;-76
2022/09/03 06:34:02;;;;;;;;;;;;;;;16.79;100.00;100961.78;5323273;27;20030;-75
2022/09/03 06:36:33;;;;;;;;;;;;;;;17.05;100.00;100961.44;5323807;27;19920;-75
2022/09/03 06:39:04;;;;;;;;;;;;;;;17.34;100.00;100968.75;5324228;27;20381;-76
2022/09/03 06:41:38;;;;;;;;;;;;;;;17.56;100.00;100975.06;5325033;27;19927;-76
2022/09/03 06:44:11;;;;;;;;;;;;;;;17.77;100.00;100978.91;5355878;27;19916;-76
2022/09/03 06:46:42;;;;;;;;;;;;;;;18.00;100.00;100969.88;5324137;27;19920;-76
2022/09/03 06:49:13;;;;;;;;;;;;;;;18.20;100.00;100973.69;5323053;27;19920;-76
2022/09/03 06:51:44;;;;;;;;;;;;;;;18.36;100.00;100975.31;5324300;27;19920;-76
2022/09/03 06:54:16;;;;;;;;;;;;;;;18.47;100.00;100972.09;5322919;27;20374;-75
2022/09/03 06:56:47;;;;;;;;;;;;;;;18.64;100.00;100963.75;5324630;27;20407;-76
2022/09/03 06:59:18;;;;;;;;;;;;;;;18.79;100.00;100967.22;5318976;27;19924;-76
2022/09/03 07:01:49;;;;;;;;;;;;;;;19.01;100.00;100973.47;5321978;27;19925;-76
2022/09/03 07:04:23;;;;;;;;;;;;;;;19.29;100.00;100971.84;5325806;27;20380;-76
2022/09/03 07:06:54;;;;;;;;;;;;;;;19.63;100.00;100974.56;5321033;27;19927;-76
2022/09/03 07:09:26;;;;;;;;;;;;;;;19.85;100.00;100968.25;5323292;27;19919;-76
2022/09/03 07:11:57;;;;;;;;;;;;;;;19.98;100.00;100968.31;5321751;27;19962;-76
2022/09/03 07:14:28;;;;;;;;;;;;;;;20.07;100.00;100969.78;5327785;27;19931;-76
2022/09/03 07:16:59;;;;;;;;;;;;;;;20.29;100.00;100973.22;5326381;27;19959;-76
2022/09/03 07:19:31;;;;;;;;;;;;;;;20.52;100.00;100977.47;5322694;27;19920;-76
2022/09/03 07:22:02;;;;;;;;;;;;;;;20.88;100.00;100974.41;5319930;27;19920;-76
2022/09/03 07:24:34;;;;;;;;;;;;;;;21.45;99.15;100974.81;5321886;27;20303;-76
2022/09/03 07:27:06;;;;;;;;;;;;;;;21.69;98.86;100972.50;5323283;27;19916;-76
2022/09/03 07:29:37;;;;;;;;;;;;;;;22.31;93.96;100975.63;5336088;27;20387;-76
2022/09/03 07:32:08;;;;;;;;;;;;;;;22.90;89.46;100967.31;5323336;27;19920;-76
2022/09/03 07:34:39;;;;;;;;;;;;;;;23.43;79.20;100969.59;5355356;27;19928;-77
2022/09/03 07:37:10;;;;;;;;;;;;;;;23.30;75.46;100977.84;5340923;27;19926;-76
2022/09/03 07:39:42;;;;;;;;;;;;;;;23.32;80.24;100976.59;5324378;27;20299;-76
2022/09/03 07:42:13;;;;;;;;;;;;;;;23.44;80.69;100975.84;5326723;27;19916;-77
2022/09/03 07:44:44;;;;;;;;;;;;;;;23.44;78.78;100968.53;5320422;27;19924;-76
2022/09/03 07:47:17;;;;;;;;;;;;;;;24.00;78.02;100983.03;5319454;27;19927;-77
2022/09/03 07:49:48;;;;;;;;;;;;;;;24.87;74.24;100979.94;5314899;27;19920;-76
2022/09/03 07:52:19;;;;;;;;;;;;;;;25.80;67.39;100977.47;5318842;27;20364;-77
2022/09/03 07:54:50;;;;;;;;;;;;;;;26.67;64.31;100983.06;5324181;27;19926;-76
2022/09/03 07:57:22;;;;;;;;;;;;;;;27.51;58.91;100977.56;5322693;27;19946;-75
2022/09/03 07:59:53;;;;;;;;;;;;;;;28.33;52.83;100979.69;5326243;27;19967;-75
2022/09/03 08:02:24;;;;;;;;;;;;;;;29.02;48.29;100982.56;5310294;27;20374;-75
2022/09/03 08:04:55;;;;;;;;;;;;;;;29.34;47.47;100984.47;5323238;28;19923;-75
2022/09/03 08:07:28;;;;;;;;;;;;;;;29.84;44.44;100989.72;5326645;27;19916;-75
2022/09/03 08:09:59;;;;;;;;;;;;;;;30.40;43.61;100986.34;5327445;27;19916;-76
2022/09/03 08:12:31;;;;;;;;;;;;;;;30.90;41.96;100982.81;5327567;27;19924;-76
2022/09/03 08:15:03;;;;;;;;;;;;;;;31.31;40.23;100981.16;5325968;27;19920;-76
2022/09/03 08:17:34;;;;;;;;;;;;;;;31.78;38.21;100980.78;5327712;27;19912;-77
2022/09/03 08:20:06;;;;;;;;;;;;;;;32.36;38.89;100980.22;5327732;27;19962;-76
2022/09/03 08:22:37;;;;;;;;;;;;;;;32.91;35.64;100979.31;5324316;28;20109;-76
2022/09/03 08:25:09;;;;;;;;;;;;;;;33.26;35.00;100988.41;5325313;27;20061;-76
2022/09/03 08:27:40;;;;;;;;;;;;;;;33.57;34.76;100986.13;5325197;27;20386;-76
2022/09/03 08:30:11;;;;;;;;;;;;;;;34.18;33.09;100997.59;5325173;27;20321;-76
2022/09/03 08:32:42;;;;;;;;;;;;;;;34.68;32.56;100981.38;5328196;27;19916;-76
2022/09/03 08:35:13;;;;;;;;;;;;;;;35.16;30.88;100996.91;5321569;27;19990;-77
2022/09/03 08:37:45;;;;;;;;;;;;;;;35.59;30.47;100997.50;5321232;27;20305;-76
2022/09/03 08:40:17;;;;;;;;;;;;;;;35.78;30.57;100997.44;5317531;27;19920;-76
2022/09/03 08:42:56;;;;;;;;;;;;;;;36.12;28.39;101003.66;5321405;27;19921;-77
2022/09/03 08:45:29;;;;;;;;;;;;;;;36.06;28.04;101005.72;5321606;27;19976;-77
2022/09/03 08:48:12;;;;;;;;;;;;;;;36.16;27.62;100999.94;5315720;27;20241;-77
2022/09/03 08:50:50;;;;;;;;;;;;;;;36.61;27.50;100998.38;5317024;27;19927;-77
2022/09/03 08:53:24;;;;;;;;;;;;;;;36.12;27.92;101001.72;5320121;27;20354;-77
2022/09/03 08:55:59;;;;;;;;;;;;;;;36.08;27.80;100994.31;5321412;27;20058;-77
2022/09/03 08:58:32;;;;;;;;;;;;;;;36.20;27.39;100999.31;5327660;27;19920;-77
2022/09/03 09:01:23;;;;;;;;;;;;;;;37.22;26.79;100999.69;5325205;28;20355;-77
2022/09/03 09:04:01;;;;;;;;;;;;;;;37.83;24.61;100997.16;5324139;27;20419;-76
2022/09/03 09:06:49;;;;;;;;;;;;;;;38.51;24.77;100995.94;5334221;27;19919;-77
2022/09/03 09:09:29;;;;;;;;;;;;;;;39.11;23.37;101000.63;5320735;27;19931;-77
2022/09/03 09:12:06;;;;;;;;;;;;;;;39.17;24.02;101004.06;5326014;27;19936;-77
2022/09/03 09:14:57;;;;;;;;;;;;;;;39.05;23.80;101007.56;5326819;27;20286;-77
2022/09/03 09:17:44;;;;;;;;;;;;;;;39.93;23.26;101007.22;5312397;27;19916;-77
2022/09/03 09:20:34;;;;;;;;;;;;;;;40.30;21.94;101007.44;5322645;27;19973;-77
2022/09/03 09:23:06;;;;;;;;;;;;;;;40.42;22.00;101004.75;5319633;27;19920;-77
2022/09/03 09:25:45;;;;;;;;;;;;;;;41.19;21.78;101001.53;5320607;27;19920;-77
2022/09/03 09:28:16;;;;;;;;;;;;;;;42.00;20.35;101001.78;5321313;27;20380;-77
2022/09/03 09:30:49;;;;;;;;;;;;;;;42.53;20.37;101001.78;5321174;27;19924;-76
2022/09/03 09:33:21;;;;;;;;;;;;;;;43.00;19.49;101000.31;5320076;27;19934;-76
2022/09/03 09:35:53;;;;;;;;;;;;;;;43.20;18.92;100996.44;5319376;27;19920;-76
2022/09/03 09:38:32;;;;;;;;;;;;;;;43.00;19.54;100994.69;5322457;27;19916;-76
2022/09/03 09:41:07;;;;;;;;;;;;;;;42.53;19.69;100990.59;5314801;27;20017;-76
2022/09/03 09:43:39;;;;;;;;;;;;;;;42.91;19.96;100985.59;5320244;27;19920;-76
2022/09/03 09:46:14;;;;;;;;;;;;;;;43.58;19.29;100991.34;5325992;27;20290;-76
2022/09/03 09:48:50;;;;;;;;;;;;;;;44.45;18.01;100999.72;5323146;27;20440;-76
2022/09/03 09:51:31;;;;;;;;;;;;;;;44.97;17.91;101009.59;5321493;28;20395;-76
2022/09/03 09:54:11;;;;;;;;;;;;;;;45.37;18.18;100996.25;5323488;27;20005;-76
2022/09/03 09:56:44;;;;;;;;;;;;;;;45.66;17.05;100997.50;5309335;27;19924;-76
2022/09/03 09:59:18;;;;;;;;;;;;;;;46.21;16.80;100994.28;5319622;27;19966;-76
2022/09/03 10:01:49;;;;;;;;;;;;;;;46.17;15.92;100999.06;5329765;27;19912;-76
2022/09/03 10:04:26;;;;;;;;;;;;;;;46.45;16.39;100994.97;5329599;27;20366;-75
2022/09/03 10:07:02;;;;;;;;;;;;;;;46.75;16.09;100995.72;5327416;27;19926;-75
2022/09/03 10:09:34;;;;;;;;;;;;;;;47.10;16.06;100990.84;5325613;27;20318;-76
2022/09/03 10:12:13;;;;;;;;;;;;;;;46.67;15.80;100987.56;5322846;28;20053;-75
2022/09/03 10:14:55;;;;;;;;;;;;;;;46.29;15.71;100989.53;5325717;27;20341;-76
2022/09/03 10:17:34;;;;;;;;;;;;;;;46.50;16.02;100984.19;5325138;27;19922;-75
2022/09/03 10:20:26;;;;;;;;;;;;;;;46.86;15.50;100984.56;5322981;27;20013;-76
2022/09/03 10:23:17;;;;;;;;;;;;;;;47.32;15.64;100981.38;5331498;27;19920;-76
2022/09/03 10:26:06;;;;;;;;;;;;;;;47.93;15.34;100975.28;5322378;27;19993;-77
2022/09/03 10:28:41;;;;;;;;;;;;;;;47.69;14.86;100974.78;5323012;27;19920;-76
2022/09/03 10:31:20;;;;;;;;;;;;;;;46.12;15.99;100976.84;5323301;27;19924;-77
2022/09/03 10:33:54;;;;;;;;;;;;;;;45.83;16.17;100977.25;5322750;27;20272;-77
2022/09/03 10:36:49;;;;;;;;;;;;;;;46.49;16.46;100971.28;5324661;27;19920;-77
2022/09/03 10:39:38;;;;;;;;;;;;;;;47.56;15.47;100969.81;5304915;28;19924;-77
2022/09/03 10:42:20;;;;;;;;;;;;;;;47.54;14.95;100973.03;5319344;27;20291;-76
2022/09/03 10:44:59;;;;;;;;;;;;;;;48.05;14.90;100974.97;5326296;27;19938;-76
2022/09/03 10:47:43;;;;;;;;;;;;;;;48.67;14.96;100975.19;5319103;27;20341;-77
2022/09/03 10:50:20;;;;;;;;;;;;;;;49.04;13.63;100971.97;5325507;27;19920;-75
2022/09/03 10:53:11;;;;;;;;;;;;;;;48.99;14.66;100970.38;5318256;27;19931;-75
2022/09/03 10:55:44;;;;;;;;;;;;;;;48.98;14.75;100976.44;5318731;27;20914;-75
2022/09/03 10:58:22;;;;;;;;;;;;;;;49.39;14.37;100967.53;5320723;27;19963;-75
2022/09/03 11:00:59;;;;;;;;;;;;;;;49.53;13.35;100966.72;5317023;27;19931;-76
2022/09/03 11:03:41;;;;;;;;;;;;;;;49.59;13.21;100973.59;5314974;27;19923;-76
2022/09/03 11:06:19;;;;;;;;;;;;;;;49.34;13.44;100976.44;5308425;27;19920;-77
2022/09/03 11:08:58;;;;;;;;;;;;;;;49.76;13.48;100969.09;5307545;27;20453;-76
2022/09/03 11:11:38;;;;;;;;;;;;;;;49.39;14.06;100970.38;5308444;27;19924;-77
2022/09/03 11:14:12;;;;;;;;;;;;;;;49.66;13.08;100967.13;5308181;27;19920;-77
2022/09/03 11:16:43;;;;;;;;;;;;;;;49.72;13.42;100957.75;5315581;27;20532;-76
2022/09/03 11:19:16;;;;;;;;;;;;;;;49.65;13.40;100965.47;5318609;27;19951;-76
2022/09/03 11:21:48;;;;;;;;;;;;;;;49.05;13.90;100964.31;5315266;27;20436;-77
2022/09/03 11:24:23;;;;;;;;;;;;;;;49.01;13.27;100967.16;5318987;27;19919;-77
2022/09/03 11:27:06;;;;;;;;;;;;;;;48.76;13.75;100955.81;5314635;27;20392;-77
2022/09/03 11:29:47;;;;;;;;;;;;;;;49.13;14.10;100958.28;5317420;27;20006;-77
2022/09/03 11:32:32;;;;;;;;;;;;;;;48.72;13.46;100961.47;5315639;27;20300;-77
2022/09/03 11:35:12;;;;;;;;;;;;;;;48.94;13.27;100953.81;5339617;27;19921;-77
2022/09/03 11:37:56;;;;;;;;;;;;;;;48.38;14.01;100958.97;5304191;27;19950;-77
2022/09/03 11:40:33;;;;;;;;;;;;;;;48.76;13.75;100950.97;5300737;27;20026;-77
2022/09/03 11:43:05;;;;;;;;;;;;;;;49.61;13.45;100942.03;5312866;27;19924;-77
2022/09/03 11:45:37;;;;;;;;;;;;;;;49.70;13.40;100946.03;5315497;27;19916;-77
2022/09/03 11:48:30;;;;;;;;;;;;;;;49.66;13.40;100950.13;5311749;27;20327;-77
2022/09/03 11:51:02;;;;;;;;;;;;;;;50.18;12.88;100946.69;5320020;27;19927;-77
2022/09/03 11:53:34;;;;;;;;;;;;;;;49.63;13.31;100945.25;5328289;27;19923;-77
2022/09/03 11:56:05;;;;;;;;;;;;;;;49.48;13.16;100944.47;5325420;27;20050;-78
2022/09/03 11:58:38;;;;;;;;;;;;;;;49.25;13.17;100942.88;5320353;27;19924;-77
2022/09/03 12:01:10;;;;;;;;;;;;;;;49.24;13.69;100937.63;5315497;27;19923;-77
2022/09/03 12:03:41;;;;;;;;;;;;;;;49.50;13.06;100939.22;5324370;27;19923;-77
2022/09/03 12:06:31;;;;;;;;;;;;;;;49.19;13.68;100950.97;5326426;27;19927;-77
2022/09/03 12:09:09;;;;;;;;;;;;;;;48.91;13.49;100950.97;5316321;27;20010;-77
2022/09/03 12:11:44;;;;;;;;;;;;;;;49.17;13.28;100958.28;5322069;27;20351;-77
2022/09/03 12:14:16;;;;;;;;;;;;;;;48.97;13.34;100946.50;5305978;27;19923;-77
2022/09/03 12:17:10;;;;;;;;;;;;;;;48.46;14.25;100945.63;5305675;27;19916;-77
2022/09/03 12:19:55;;;;;;;;;;;;;;;47.45;14.93;100935.88;5312794;27;19916;-77
2022/09/03 12:22:27;;;;;;;;;;;;;;;47.22;14.61;100945.38;5323625;27;19920;-77
2022/09/03 12:25:16;;;;;;;;;;;;;;;47.28;14.53;100941.00;5327373;27;19912;-78
2022/09/03 12:27:48;;;;;;;;;;;;;;;48.14;13.94;100937.84;5308206;27;20372;-77
2022/09/03 12:30:23;;;;;;;;;;;;;;;48.92;13.31;100942.09;5316568;27;19916;-77
2022/09/03 12:33:04;;;;;;;;;;;;;;;49.21;13.56;100936.41;5321000;27;19916;-77
2022/09/03 12:35:36;;;;;;;;;;;;;;;49.61;13.64;100939.19;5314039;27;19927;-77
2022/09/03 12:38:07;;;;;;;;;;;;;;;49.63;12.96;100931.09;5311570;27;20295;-77
2022/09/03 12:40:41;;;;;;;;;;;;;;;49.92;13.12;100935.47;5326535;27;20300;-77
2022/09/03 12:43:14;;;;;;;;;;;;;;;49.74;12.67;100924.19;5316271;27;19920;-77
2022/09/03 12:45:47;;;;;;;;;;;;;;;50.29;12.37;100933.28;5305638;27;20422;-77
2022/09/03 12:48:19;;;;;;;;;;;;;;;50.45;12.15;100935.59;5315637;27;19952;-77
2022/09/03 12:51:00;;;;;;;;;;;;;;;50.76;12.34;100932.94;5321491;27;20306;-76
2022/09/03 12:53:31;;;;;;;;;;;;;;;51.16;12.26;100933.41;5318867;27;19967;-77
2022/09/03 12:56:03;;;;;;;;;;;;;;;50.46;12.00;100934.34;5315036;27;20363;-77
2022/09/03 12:58:42;;;;;;;;;;;;;;;49.35;12.17;100927.09;5327992;27;20387;-77
2022/09/03 13:01:19;;;;;;;;;;;;;;;49.60;12.99;100921.38;5319682;27;19971;-77
2022/09/03 13:03:56;;;;;;;;;;;;;;;50.44;12.66;100923.41;5320564;27;19928;-76
2022/09/03 13:06:33;;;;;;;;;;;;;;;50.97;12.25;100918.59;5323647;27;19923;-76
2022/09/03 13:09:06;;;;;;;;;;;;;;;50.48;11.93;100927.06;5322450;27;19924;-77
2022/09/03 13:11:38;;;;;;;;;;;;;;;49.52;12.54;100920.59;5315910;28;20018;-77
2022/09/03 13:14:13;;;;;;;;;;;;;;;48.71;13.05;100916.56;5314824;28;19930;-78